WetterOnline ( https://www.wetteronline.de )

Wetter aktuell Altmark

Aktuelles Wetter: Gardelegen (48m)

6-stündlich | Neueste Meldungen
Ortszeit Temperatur Wetter
Di, 22.10. 14:00 14.1° C bewölkt
Di, 22.10. 8:00 9.8° C bewölkt
Di, 22.10. 2:00 13.6° C bedeckt
Mo, 21.10. 20:00 15.0° C bedeckt
Mo, 21.10. 14:00 17.2° C wolkig
Mo, 21.10. 8:00 12.0° C Nebel
Mo, 21.10. 2:00 13.4° C bedeckt
So, 20.10. 20:00 14.4° C bewölkt
Ortszeit Temperatur Wetter
Di, 22.10. 16:30 14.1° C wolkig
Di, 22.10. 16:20 14.1° C wolkig
Di, 22.10. 16:10 14.1° C wolkig
Di, 22.10. 16:00 14.2° C wolkig
Di, 22.10. 15:50 14.2° C wolkig
Di, 22.10. 15:40 14.1° C wolkig
Di, 22.10. 15:30 14.5° C wolkig
Di, 22.10. 15:00 14.6° C wolkig
Di, 22.10. 14:30 14.2° C wolkig
Di, 22.10. 14:00 14.1° C bewölkt
Di, 22.10. 13:30 14.0° C wolkig
Ortszeit Relative Feuchte Sichtweite
Di, 22.10. 14:00 70% 55 km
Di, 22.10. 8:00 97% 22 km
Di, 22.10. 2:00 88% 45 km
Mo, 21.10. 20:00 93% 30 km
Mo, 21.10. 14:00 78% 30 km
Mo, 21.10. 8:00 99% 0.2 km
Mo, 21.10. 2:00 93% 35 km
So, 20.10. 20:00 93% 24 km
Ortszeit Relative Feuchte Sichtweite
Di, 22.10. 16:30 69% 50 km
Di, 22.10. 16:20 69% -
Di, 22.10. 16:10 70% -
Di, 22.10. 16:00 69% 60 km
Di, 22.10. 15:50 69% -
Di, 22.10. 15:40 71% -
Di, 22.10. 15:30 69% 50 km
Di, 22.10. 15:00 66% 45 km
Di, 22.10. 14:30 70% 60 km
Di, 22.10. 14:00 70% 55 km
Di, 22.10. 13:30 72% 60 km
Ortszeit Niederschlagsmenge Niederschlagsart
Di, 22.10. 14:00 0.0 l/m2 in 6 Std. -
Di, 22.10. 8:00 0.0 l/m2 in 12 Std. -
Di, 22.10. 2:00 0.0 l/m2 in 6 Std. -
Mo, 21.10. 20:00 0.0 l/m2 in 12 Std. -
Mo, 21.10. 14:00 0.0 l/m2 in 6 Std. -
Mo, 21.10. 8:00 0.1 l/m2 in 12 Std. Regen
Mo, 21.10. 2:00 0.1 l/m2 in 6 Std. Regen
So, 20.10. 20:00 0.2 l/m2 in 12 Std. Regen
Ortszeit Niederschlagsmenge Niederschlagsart
Di, 22.10. 16:30 0.0 l/m2 in 1 Std. -
Di, 22.10. 16:20 keine Meldung -
Di, 22.10. 16:10 keine Meldung -
Di, 22.10. 16:00 0.0 l/m2 in 1 Std. -
Di, 22.10. 15:50 keine Meldung -
Di, 22.10. 15:40 keine Meldung -
Di, 22.10. 15:30 0.0 l/m2 in 1 Std. -
Di, 22.10. 15:00 0.0 l/m2 in 1 Std. -
Di, 22.10. 14:30 0.0 l/m2 in 1 Std. -
Di, 22.10. 14:00 0.0 l/m2 in 1 Std. -
Di, 22.10. 13:30 0.0 l/m2 in 1 Std. -
Ortszeit Stärke Spitze Richtung
km/h Bft. km/h Grad Sektor
Di, 22.10. 14:00 11 2 22 240° SW
Di, 22.10. 8:00 0 0 7 - -
Di, 22.10. 2:00 7 2 14 250° W
Mo, 21.10. 20:00 4 1 11 220° SW
Mo, 21.10. 14:00 4 1 14 160° S
Mo, 21.10. 8:00 2 1 17 70° O
Mo, 21.10. 2:00 4 1 14 260° W
So, 20.10. 20:00 4 1 11 30° NO
Ortszeit Stärke Spitze Richtung
km/h Bft. km/h Grad Sektor
Di, 22.10. 16:30 11 2 22 270° W
Di, 22.10. 16:20 11 2 - 270° W
Di, 22.10. 16:10 11 2 - 280° W
Di, 22.10. 16:00 14 3 22 260° W
Di, 22.10. 15:50 14 3 - 260° W
Di, 22.10. 15:40 13 3 - 240° SW
Di, 22.10. 15:30 14 3 22 250° W
Di, 22.10. 15:00 11 2 22 230° SW
Di, 22.10. 14:30 13 3 20 250° W
Di, 22.10. 14:00 11 2 18 240° SW
Di, 22.10. 13:30 11 2 18 240° SW
Ortszeit Untergrenze Bedeckung Gattung
total tief tief mittel hoch
Di, 22.10. 14:00 6900 m 7/8 7/8 - - -
Di, 22.10. 8:00 690 m 8/8 7/8 - - -
Di, 22.10. 2:00 2100 m 8/8 8/8 - - -
Mo, 21.10. 20:00 3300 m 8/8 8/8 - - -
Mo, 21.10. 14:00 2100 m 8/8 1/8 - - -
Mo, 21.10. 8:00 <30 m 8/8 0/8 - - -
Mo, 21.10. 2:00 3000 m 8/8 8/8 - - -
So, 20.10. 20:00 1440 m 8/8 7/8 - - -
Ortszeit Bedeckungsgrad in Achtel und Wolkenuntergrenze
Di, 22.10. 16:30 7(7500m) 7(8100m)
Di, 22.10. 16:20 7(7500m) 7(8100m)
Di, 22.10. 16:10 7(7800m) 8(8700m)
Di, 22.10. 16:00 2(8100m) 6(9000m) 7(9000m)
Di, 22.10. 15:50 2(8100m) 6(9000m) 7(9000m)
Di, 22.10. 15:40 2(7800m) 5(9000m) 7(9000m)
Di, 22.10. 15:30 2(6900m) 7(7800m) 7(9000m)
Di, 22.10. 15:00 3(6600m) 6(8100m) 7(9000m)
Di, 22.10. 14:30 5(6600m) 7(8100m) 7(8400m)
Di, 22.10. 14:00 7(6900m) 7(8100m)
Di, 22.10. 13:30 2(6900m) 8(7800m)
Ortszeit Luftdruck NN (hPa) Tendenz (hPa in 3 Std.)
Di, 22.10. 14:00 1025 + 0,1
Di, 22.10. 8:00 1023 + 0,6
Di, 22.10. 2:00 1022 + 1,3
Mo, 21.10. 20:00 1020 + 1,5
Mo, 21.10. 14:00 1018 + 1,0
Mo, 21.10. 8:00 1015 + 1,1
Mo, 21.10. 2:00 1012 + 0,5
So, 20.10. 20:00 1012 + 0,7
Ortszeit Luftdruck NN (hPa) Tendenz (hPa in 3 Std.)
Di, 22.10. 16:30 1024 - 0,8
Di, 22.10. 16:20 1024 keine Meldung
Di, 22.10. 16:10 1024 keine Meldung
Di, 22.10. 16:00 1024 - 0,5
Di, 22.10. 15:50 1024 keine Meldung
Di, 22.10. 15:40 1024 keine Meldung
Di, 22.10. 15:30 1024 - 0,7
Di, 22.10. 15:00 1025 - 0,5
Di, 22.10. 14:30 1025 - 0,4
Di, 22.10. 14:00 1025 + 0,1
Di, 22.10. 13:30 1025 + 0,3
Ortszeit Schneehöhe (cm)
Di, 22.10. 14:00 0
Di, 22.10. 8:00 0
Di, 22.10. 2:00 0
Mo, 21.10. 20:00 0
Mo, 21.10. 14:00 0
Mo, 21.10. 8:00 0
Mo, 21.10. 2:00 0
So, 20.10. 20:00 0
Ortszeit Schneehöhe (cm)
Di, 22.10. 16:30 0
Di, 22.10. 16:20 0
Di, 22.10. 16:10 0
Di, 22.10. 16:00 0
Di, 22.10. 15:50 0
Di, 22.10. 15:40 0
Di, 22.10. 15:30 0
Di, 22.10. 15:00 0
Di, 22.10. 14:30 0
Di, 22.10. 14:00 0
Di, 22.10. 13:30 0
Link zu dieser Seite / Seite empfehlen

Das Wetter in ...